Terminal Aerodrome Forecast
Issued by NWS

Home | Current Version | Previous Version | Text Only | Print | Product List | Glossary On
Versions: 1 2 3 4 5 6 7 8 9 10 11 12 13 14 15
000
FTUS42 KTAE 221100
TAFABY
TAF
KABY 221124Z 2212/2312 06005KT 1SM RA BR OVC002
     FM221400 08005KT 4SM -RA BR OVC005
     FM230000 12005KT 2SM -RA BR OVC002=

USA.gov is the U.S. government's official web portal to all federal, state and local government web resources and services.